createdAt,value
2018-04-23T00:00:34.523Z,70.77
2018-04-23T00:03:02.495Z,70.72
2018-04-23T00:05:30.470Z,70.85
2018-04-23T00:07:58.463Z,70.94
2018-04-23T00:10:26.426Z,70.59
2018-04-23T00:12:54.390Z,70.53
2018-04-23T00:15:22.381Z,70.48
2018-04-23T00:17:50.347Z,70.28
2018-04-23T00:20:18.354Z,70.07
2018-04-23T00:22:46.364Z,70.03
2018-04-23T00:25:14.348Z,69.75
2018-04-23T00:27:42.319Z,70.68
2018-04-23T00:30:10.332Z,71.26
2018-04-23T00:32:38.402Z,71.65
2018-04-23T00:35:06.397Z,72.49
2018-04-23T00:37:34.413Z,73.05
2018-04-23T00:40:02.434Z,74.35
2018-04-23T00:42:30.399Z,74.30
2018-04-23T00:44:58.691Z,75.70
2018-04-23T00:47:26.671Z,75.95
2018-04-23T00:49:55.250Z,76.17
2018-04-23T00:52:23.254Z,76.17
2018-04-23T00:54:51.239Z,75.67
2018-04-23T00:57:19.243Z,76.08
2018-04-23T00:59:47.235Z,76.63
2018-04-23T01:02:15.211Z,76.89
2018-04-23T01:04:43.200Z,78.07
2018-04-23T01:07:11.196Z,79.42
2018-04-23T01:09:39.224Z,79.49
2018-04-23T01:12:07.198Z,79.90
2018-04-23T01:14:35.159Z,79.76
2018-04-23T01:17:03.160Z,79.72
2018-04-23T01:19:31.139Z,80.10
2018-04-23T01:21:59.159Z,80.19
2018-04-23T01:24:27.146Z,80.67
2018-04-23T01:26:55.119Z,80.81
2018-04-23T01:29:23.103Z,79.94
2018-04-23T01:31:51.084Z,80.06
2018-04-23T01:34:19.060Z,80.85
2018-04-23T01:36:47.051Z,79.41
2018-04-23T01:39:15.035Z,79.85
2018-04-23T01:41:43.038Z,81.29
2018-04-23T01:44:11.016Z,81.80
2018-04-23T01:46:39.010Z,81.35
2018-04-23T01:49:06.983Z,81.36
2018-04-23T01:51:35.039Z,82.81
2018-04-23T01:54:03.027Z,83.38
2018-04-23T01:56:31.024Z,83.58
2018-04-23T01:58:59.044Z,83.49
2018-04-23T02:01:27.059Z,83.42
2018-04-23T02:03:55.231Z,84.04
2018-04-23T02:06:23.307Z,84.81
2018-04-23T02:08:51.303Z,84.97
2018-04-23T02:11:19.285Z,84.64
2018-04-23T02:13:47.271Z,84.25
2018-04-23T02:16:15.299Z,84.66
2018-04-23T02:18:43.273Z,84.36
2018-04-23T02:21:11.278Z,84.33
2018-04-23T02:23:39.247Z,84.35
2018-04-23T02:26:07.238Z,84.02
2018-04-23T02:28:35.239Z,83.68
2018-04-23T02:31:03.219Z,83.68
2018-04-23T02:33:31.220Z,83.95
2018-04-23T02:35:59.212Z,84.40
2018-04-23T02:38:27.192Z,84.32
2018-04-23T02:40:55.196Z,83.25
2018-04-23T02:43:23.179Z,83.94
2018-04-23T02:45:51.183Z,84.75
2018-04-23T02:48:19.151Z,84.61
2018-04-23T02:50:47.119Z,83.82
2018-04-23T02:53:15.098Z,83.64
2018-04-23T02:55:43.087Z,84.32
2018-04-23T02:58:11.090Z,84.74
2018-04-23T03:00:39.067Z,84.51
2018-04-23T03:03:07.077Z,84.32
2018-04-23T03:05:35.079Z,84.27
2018-04-23T03:08:03.078Z,84.82
2018-04-23T03:10:31.116Z,84.92
2018-04-23T03:12:59.115Z,84.76
2018-04-23T03:15:27.193Z,83.98
2018-04-23T03:17:55.291Z,84.86
2018-04-23T03:20:23.271Z,85.13
2018-04-23T03:22:51.240Z,84.68
2018-04-23T03:25:19.208Z,84.74
2018-04-23T03:27:47.179Z,84.71
2018-04-23T03:30:15.169Z,84.44
2018-04-23T03:32:43.154Z,84.64
2018-04-23T03:35:11.144Z,84.31
2018-04-23T03:37:39.135Z,84.41
2018-04-23T03:40:07.218Z,83.91
2018-04-23T03:42:35.211Z,84.26
2018-04-23T03:45:03.170Z,84.39
2018-04-23T03:47:31.261Z,83.49
2018-04-23T03:49:59.240Z,83.64
2018-04-23T03:52:27.324Z,83.63
2018-04-23T03:54:55.407Z,83.47
2018-04-23T03:57:23.763Z,83.10
2018-04-23T03:59:52.263Z,83.03
2018-04-23T04:02:20.516Z,84.04
2018-04-23T04:04:48.495Z,83.48
2018-04-23T04:07:16.497Z,83.52
2018-04-23T04:09:45.543Z,82.46
2018-04-23T04:12:26.077Z,82.98
2018-04-23T04:15:05.868Z,83.13
2018-04-23T04:20:25.539Z,83.61
2018-04-23T04:22:53.615Z,84.05
2018-04-23T04:25:21.613Z,83.47
2018-04-23T04:27:49.600Z,83.20
2018-04-23T04:30:17.591Z,83.63
2018-04-23T04:32:46.300Z,83.80
2018-04-23T04:35:14.879Z,83.49
2018-04-23T04:37:42.901Z,83.07
2018-04-23T04:40:10.902Z,82.84
2018-04-23T04:42:38.884Z,83.79
2018-04-23T04:45:06.866Z,83.04
2018-04-23T04:47:35.505Z,82.36
2018-04-23T04:50:03.505Z,82.63
2018-04-23T04:52:31.540Z,83.20
2018-04-23T04:54:59.757Z,83.23
2018-04-23T04:57:27.747Z,83.58
2018-04-23T04:59:55.780Z,82.38
2018-04-23T05:02:23.860Z,83.25
2018-04-23T05:04:51.844Z,82.73
2018-04-23T05:07:19.849Z,82.85
2018-04-23T05:09:47.814Z,82.95
2018-04-23T05:12:15.804Z,82.77
2018-04-23T05:14:43.788Z,82.64
2018-04-23T05:17:11.795Z,83.02
2018-04-23T05:19:39.784Z,82.80
2018-04-23T05:22:07.756Z,83.36
2018-04-23T05:24:35.742Z,82.97
2018-04-23T05:27:04.618Z,83.19
2018-04-23T05:29:32.624Z,83.20
2018-04-23T05:34:54.976Z,82.47
2018-04-23T05:37:23.115Z,82.28
2018-04-23T05:43:42.671Z,81.88
2018-04-23T05:46:20.637Z,81.94
2018-04-23T05:48:48.653Z,82.08
2018-04-23T05:51:16.644Z,81.65
2018-04-23T05:53:44.707Z,81.95
2018-04-23T05:56:12.687Z,81.70
2018-04-23T05:58:40.680Z,81.87
2018-04-23T06:01:08.671Z,81.36
2018-04-23T06:03:36.664Z,80.86
2018-04-23T06:06:05.464Z,81.07
2018-04-23T06:08:33.448Z,81.15
2018-04-23T06:11:01.449Z,80.94
2018-04-23T06:13:29.439Z,80.22
2018-04-23T06:15:57.472Z,80.12
2018-04-23T06:18:26.052Z,80.65
2018-04-23T06:20:54.046Z,80.40
2018-04-23T06:23:22.056Z,80.57
2018-04-23T06:25:50.037Z,80.14
2018-04-23T06:28:18.095Z,80.25
2018-04-23T06:30:46.092Z,79.89
2018-04-23T06:33:14.096Z,80.49
2018-04-23T06:35:42.102Z,80.27
2018-04-23T06:38:10.094Z,80.28
2018-04-23T06:40:38.116Z,79.69
2018-04-23T06:43:06.097Z,80.27
2018-04-23T06:45:34.091Z,79.89
2018-04-23T06:48:02.130Z,78.18
2018-04-23T06:50:30.113Z,76.97
2018-04-23T06:52:58.136Z,75.99
2018-04-23T06:55:26.118Z,74.22
2018-04-23T06:57:54.181Z,74.09
2018-04-23T07:00:22.155Z,73.00
2018-04-23T07:02:50.148Z,72.77
2018-04-23T07:05:18.135Z,70.95
2018-04-23T07:07:46.132Z,70.90
2018-04-23T07:10:14.168Z,70.64
2018-04-23T07:12:42.168Z,70.83
2018-04-23T07:15:10.174Z,72.32
2018-04-23T07:17:38.175Z,71.00
2018-04-23T07:20:06.188Z,71.16
2018-04-23T07:22:34.182Z,70.78
2018-04-23T07:25:02.183Z,71.55
2018-04-23T07:27:30.920Z,71.11
2018-04-23T07:29:58.905Z,71.45
2018-04-23T07:32:26.887Z,70.15
2018-04-23T07:34:54.933Z,69.01
2018-04-23T07:37:22.937Z,67.71
2018-04-23T07:39:50.927Z,66.80
2018-04-23T07:42:18.926Z,67.01
2018-04-23T07:44:46.916Z,66.20
2018-04-23T07:47:14.898Z,65.22
2018-04-23T07:49:42.908Z,64.25
2018-04-23T07:52:10.901Z,64.92
2018-04-23T07:54:38.927Z,64.75
2018-04-23T07:57:06.924Z,66.18
2018-04-23T07:59:34.942Z,65.82
2018-04-23T08:02:03.013Z,64.38
2018-04-23T08:04:31.012Z,64.00
2018-04-23T08:06:58.985Z,63.44
2018-04-23T08:09:26.960Z,63.89
2018-04-23T08:11:54.969Z,64.50
2018-04-23T08:14:22.957Z,65.00
2018-04-23T08:16:50.948Z,65.79
2018-04-23T08:19:18.920Z,64.99
2018-04-23T08:21:46.905Z,64.86
2018-04-23T08:24:14.898Z,64.42
2018-04-23T08:26:42.884Z,64.66
2018-04-23T08:29:10.860Z,63.50
2018-04-23T08:31:38.845Z,62.82
2018-04-23T08:34:06.815Z,62.99
2018-04-23T08:36:34.848Z,61.79
2018-04-23T08:39:02.831Z,60.76
2018-04-23T08:41:30.832Z,61.63
2018-04-23T08:43:58.856Z,61.53
2018-04-23T08:46:26.814Z,61.21
2018-04-23T08:48:54.793Z,60.78
2018-04-23T08:51:22.815Z,61.65
2018-04-23T08:53:50.808Z,60.63
2018-04-23T08:56:18.807Z,59.57
2018-04-23T08:58:46.796Z,57.48
2018-04-23T09:01:14.789Z,59.05
2018-04-23T09:03:42.755Z,60.13
2018-04-23T09:06:10.756Z,60.99
2018-04-23T09:08:38.764Z,61.81
2018-04-23T09:11:06.748Z,63.09
2018-04-23T09:13:34.741Z,63.07
2018-04-23T09:16:02.716Z,60.88
2018-04-23T09:18:30.715Z,61.93
2018-04-23T09:20:58.704Z,60.78
2018-04-23T09:23:26.692Z,61.44
2018-04-23T09:25:54.663Z,60.09
2018-04-23T09:28:22.654Z,60.70
2018-04-23T09:30:50.641Z,58.64
2018-04-23T09:33:18.709Z,60.78
2018-04-23T09:35:46.707Z,62.15
2018-04-23T09:38:14.721Z,62.95
2018-04-23T09:40:42.712Z,63.76
2018-04-23T09:43:10.718Z,63.29
2018-04-23T09:45:38.701Z,63.63
2018-04-23T09:48:06.698Z,63.11
2018-04-23T09:50:34.677Z,64.17
2018-04-23T09:53:02.670Z,64.72
2018-04-23T09:55:30.669Z,65.60
2018-04-23T09:57:58.680Z,66.85
2018-04-23T10:00:31.534Z,67.13
2018-04-23T10:02:59.503Z,67.87
2018-04-23T10:05:27.486Z,68.67
2018-04-23T10:07:55.643Z,69.09
2018-04-23T10:10:23.634Z,69.68
2018-04-23T10:12:51.608Z,69.95
2018-04-23T10:15:19.608Z,69.29
2018-04-23T10:17:47.580Z,69.77
2018-04-23T10:20:15.585Z,70.17
2018-04-23T10:22:43.607Z,70.81
2018-04-23T10:25:11.610Z,69.32
2018-04-23T10:27:39.616Z,68.54
2018-04-23T10:30:07.610Z,67.84
2018-04-23T10:32:35.599Z,67.61
2018-04-23T10:35:03.595Z,67.66
2018-04-23T10:37:31.562Z,67.36
2018-04-23T10:39:59.569Z,66.27
2018-04-23T10:42:27.532Z,66.56
2018-04-23T10:44:55.540Z,65.75
2018-04-23T10:47:23.528Z,66.89
2018-04-23T10:49:51.508Z,68.03
2018-04-23T10:52:19.513Z,68.88
2018-04-23T10:54:47.496Z,68.94
2018-04-23T10:57:15.510Z,68.99
2018-04-23T10:59:43.525Z,69.16
2018-04-23T11:02:11.492Z,70.32
2018-04-23T11:04:39.492Z,69.99
2018-04-23T11:07:07.494Z,69.75
2018-04-23T11:09:35.541Z,69.40
2018-04-23T11:12:03.503Z,69.13
2018-04-23T11:14:31.475Z,67.54
2018-04-23T11:16:59.476Z,65.57
2018-04-23T11:19:27.447Z,63.81
2018-04-23T11:21:55.516Z,64.89
2018-04-23T11:24:23.479Z,63.69
2018-04-23T11:26:51.530Z,62.47
2018-04-23T11:29:19.512Z,59.99
2018-04-23T11:31:47.517Z,59.67
2018-04-23T11:34:15.504Z,57.95
2018-04-23T11:36:43.545Z,57.56
2018-04-23T11:39:11.508Z,57.26
2018-04-23T11:41:39.523Z,56.70
2018-04-23T11:44:07.519Z,55.91
2018-04-23T11:46:35.574Z,55.71
2018-04-23T11:49:03.543Z,54.73
2018-04-23T11:51:31.532Z,52.69
2018-04-23T11:53:59.537Z,52.61
2018-04-23T11:56:27.553Z,52.80
2018-04-23T11:58:55.538Z,51.89
2018-04-23T12:01:23.535Z,51.57
2018-04-23T12:03:51.562Z,52.43
2018-04-23T12:06:19.528Z,53.86
2018-04-23T12:08:47.528Z,53.86
2018-04-23T12:11:15.520Z,53.23
2018-04-23T12:13:43.508Z,52.16
2018-04-23T12:16:11.494Z,50.96
2018-04-23T12:18:39.508Z,50.81
2018-04-23T12:21:07.501Z,50.54
2018-04-23T12:23:35.506Z,50.21
2018-04-23T12:26:03.478Z,50.97
2018-04-23T12:28:31.471Z,50.49
2018-04-23T12:30:59.452Z,49.90
2018-04-23T12:33:27.432Z,48.93
2018-04-23T12:35:55.407Z,50.37
2018-04-23T12:38:23.395Z,50.34
2018-04-23T12:40:51.374Z,49.79
2018-04-23T12:43:19.374Z,49.73
2018-04-23T12:45:47.372Z,49.28
2018-04-23T12:48:15.367Z,47.30
2018-04-23T12:50:43.363Z,47.63
2018-04-23T12:53:11.343Z,46.79
2018-04-23T12:55:39.369Z,47.71
2018-04-23T12:58:07.360Z,47.81
2018-04-23T13:00:35.323Z,47.01
2018-04-23T13:03:03.293Z,46.32
2018-04-23T13:05:31.282Z,46.92
2018-04-23T13:07:59.269Z,46.45
2018-04-23T13:10:27.240Z,47.50
2018-04-23T13:12:55.199Z,47.02
2018-04-23T13:15:23.175Z,45.89
2018-04-23T13:17:51.144Z,46.99
2018-04-23T13:20:19.144Z,49.64
2018-04-23T13:22:47.119Z,51.95
2018-04-23T13:25:15.104Z,51.63
2018-04-23T13:27:43.117Z,52.54
2018-04-23T13:30:11.104Z,52.94
2018-04-23T13:32:39.096Z,54.45
2018-04-23T13:35:07.081Z,51.44
2018-04-23T13:37:35.071Z,50.34
2018-04-23T13:40:03.059Z,50.90
2018-04-23T13:42:31.089Z,51.00
2018-04-23T13:44:59.083Z,50.50
2018-04-23T13:47:27.083Z,50.72
2018-04-23T13:49:55.076Z,50.08
2018-04-23T13:52:23.054Z,49.50
2018-04-23T13:54:51.047Z,49.95
2018-04-23T13:57:19.024Z,50.85
2018-04-23T13:59:47.025Z,51.34
2018-04-23T14:02:15.002Z,51.55
2018-04-23T14:04:42.968Z,52.22
2018-04-23T14:07:10.959Z,52.35
2018-04-23T14:09:39.047Z,52.83
2018-04-23T14:12:07.044Z,53.28
2018-04-23T14:14:35.030Z,53.81
2018-04-23T14:17:03.010Z,54.39
2018-04-23T14:19:30.985Z,53.19
2018-04-23T14:21:58.986Z,51.98
2018-04-23T14:24:26.949Z,51.38
2018-04-23T14:26:54.930Z,50.96
2018-04-23T14:29:22.923Z,51.35
2018-04-23T14:31:50.901Z,51.14
2018-04-23T14:34:18.898Z,49.89
2018-04-23T14:36:46.873Z,48.07
2018-04-23T14:39:14.847Z,48.44
2018-04-23T14:41:42.849Z,49.12
2018-04-23T14:44:10.828Z,47.83
2018-04-23T14:46:38.811Z,48.67
2018-04-23T14:49:06.768Z,51.08
2018-04-23T14:51:34.756Z,50.15
2018-04-23T14:54:02.731Z,48.66
2018-04-23T14:56:30.727Z,48.49
2018-04-23T14:58:58.759Z,48.93
2018-04-23T15:01:26.746Z,47.85
2018-04-23T15:03:54.748Z,48.13
2018-04-23T15:06:22.727Z,46.09
2018-04-23T15:08:50.708Z,45.22
2018-04-23T15:11:18.676Z,44.38
2018-04-23T15:13:46.707Z,45.29
2018-04-23T15:16:14.908Z,45.84
2018-04-23T15:18:42.958Z,45.77
2018-04-23T15:21:10.963Z,45.47
2018-04-23T15:23:39.061Z,44.56
2018-04-23T15:26:07.024Z,45.06
2018-04-23T15:28:35.017Z,45.16
2018-04-23T15:31:02.973Z,45.81
2018-04-23T15:33:31.028Z,45.51
2018-04-23T15:35:59.118Z,45.98
2018-04-23T15:38:27.092Z,45.93
2018-04-23T15:40:55.088Z,46.31
2018-04-23T15:43:23.082Z,46.31
2018-04-23T15:45:51.077Z,46.85
2018-04-23T15:48:19.083Z,46.34
2018-04-23T15:50:47.315Z,46.94
2018-04-23T15:53:15.293Z,45.92
2018-04-23T15:55:43.284Z,46.09
2018-04-23T15:58:11.437Z,46.26
2018-04-23T16:00:39.446Z,45.55
2018-04-23T16:03:07.437Z,46.54
2018-04-23T16:05:35.412Z,46.32
2018-04-23T16:08:03.383Z,46.40
2018-04-23T16:10:31.422Z,46.77
2018-04-23T16:12:59.391Z,46.89
2018-04-23T16:15:27.427Z,47.00
2018-04-23T16:17:55.501Z,46.72
2018-04-23T16:20:23.473Z,46.94
2018-04-23T16:22:51.488Z,47.70
2018-04-23T16:25:19.484Z,47.45
2018-04-23T16:27:47.456Z,48.03
2018-04-23T16:30:15.453Z,48.07
2018-04-23T16:32:43.431Z,48.28
2018-04-23T16:35:11.641Z,48.00
2018-04-23T16:37:39.630Z,46.79
2018-04-23T16:40:07.600Z,47.19
2018-04-23T16:42:35.585Z,47.18
2018-04-23T16:45:03.607Z,47.23
2018-04-23T16:47:31.745Z,47.38
2018-04-23T16:49:59.730Z,47.27
2018-04-23T16:52:27.794Z,47.10
2018-04-23T16:54:55.790Z,47.48
2018-04-23T16:57:23.755Z,47.56
2018-04-23T16:59:51.800Z,47.96
2018-04-23T17:02:21.079Z,47.75
2018-04-23T17:04:49.732Z,48.55
2018-04-23T17:07:17.716Z,48.82
2018-04-23T17:09:45.767Z,48.76
2018-04-23T17:12:14.120Z,48.28
2018-04-23T17:14:42.094Z,49.05
2018-04-23T17:17:10.086Z,49.17
2018-04-23T17:19:38.279Z,49.50
2018-04-23T17:22:06.287Z,50.07
2018-04-23T17:24:34.248Z,50.45
2018-04-23T17:27:02.245Z,51.16
2018-04-23T17:29:30.278Z,51.30
2018-04-23T17:31:58.228Z,50.73
2018-04-23T17:34:26.212Z,51.47
2018-04-23T17:36:54.255Z,51.64
2018-04-23T17:39:22.236Z,51.44
2018-04-23T17:41:50.236Z,51.82
2018-04-23T17:44:19.304Z,51.60
2018-04-23T17:46:47.367Z,51.69
2018-04-23T17:49:15.359Z,51.66
2018-04-23T17:51:43.589Z,52.49
2018-04-23T17:54:11.571Z,53.33
2018-04-23T17:56:39.554Z,53.70
2018-04-23T17:59:07.508Z,54.15
2018-04-23T18:01:35.508Z,54.07
2018-04-23T18:04:03.484Z,53.83
2018-04-23T18:06:31.480Z,53.72
2018-04-23T18:08:59.514Z,53.62
2018-04-23T18:11:27.534Z,53.95
2018-04-23T18:13:55.554Z,53.57
2018-04-23T18:16:24.639Z,53.88
2018-04-23T18:18:52.749Z,53.92
2018-04-23T18:21:20.720Z,54.10
2018-04-23T18:23:48.725Z,54.21
2018-04-23T18:26:16.732Z,54.23
2018-04-23T18:28:44.715Z,54.41
2018-04-23T18:31:12.717Z,54.20
2018-04-23T18:33:40.718Z,54.08
2018-04-23T18:36:08.739Z,54.30
2018-04-23T18:38:36.942Z,54.49
2018-04-23T18:41:04.914Z,54.65
2018-04-23T18:43:32.901Z,55.08
2018-04-23T18:46:00.868Z,54.70
2018-04-23T18:48:28.859Z,54.43
2018-04-23T18:50:56.828Z,54.70
2018-04-23T18:53:24.875Z,55.21
2018-04-23T18:55:53.592Z,54.97
2018-04-23T18:58:22.459Z,55.08
2018-04-23T19:00:50.486Z,55.29
2018-04-23T19:03:18.468Z,55.50
2018-04-23T19:05:46.462Z,55.88
2018-04-23T19:08:14.434Z,56.27
2018-04-23T19:10:42.434Z,56.44
2018-04-23T19:13:10.422Z,56.75
2018-04-23T19:15:39.040Z,57.06
2018-04-23T19:18:07.023Z,57.32
2018-04-23T19:20:35.033Z,59.22
2018-04-23T19:23:03.026Z,57.14
2018-04-23T19:25:31.035Z,57.53
2018-04-23T19:27:59.038Z,58.15
2018-04-23T19:30:27.027Z,58.49
2018-04-23T19:32:55.055Z,58.99
2018-04-23T19:35:23.037Z,58.97
2018-04-23T19:37:51.126Z,59.35
2018-04-23T19:40:19.067Z,59.38
2018-04-23T19:42:47.060Z,59.94
2018-04-23T19:45:15.064Z,59.80
2018-04-23T19:47:43.069Z,59.51
2018-04-23T19:50:11.062Z,59.77
2018-04-23T19:52:39.083Z,60.10
2018-04-23T19:55:07.121Z,60.54
2018-04-23T19:57:35.126Z,60.88
2018-04-23T20:00:03.116Z,60.51
2018-04-23T20:02:31.127Z,61.22
2018-04-23T20:04:59.130Z,61.80
2018-04-23T20:07:27.140Z,61.28
2018-04-23T20:09:55.145Z,61.09
2018-04-23T20:12:23.564Z,60.79
2018-04-23T20:14:51.585Z,61.45
2018-04-23T20:17:19.652Z,61.61
2018-04-23T20:19:47.651Z,62.03
2018-04-23T20:22:15.651Z,61.55
2018-04-23T20:24:43.636Z,61.62
2018-04-23T20:27:11.604Z,61.13
2018-04-23T20:29:39.612Z,60.91
2018-04-23T20:32:07.605Z,60.04
2018-04-23T20:34:35.898Z,60.41
2018-04-23T20:37:03.860Z,60.27
2018-04-23T20:39:31.924Z,60.44
2018-04-23T20:41:59.892Z,60.53
2018-04-23T20:44:27.933Z,61.28
2018-04-23T20:46:55.920Z,61.67
2018-04-23T20:49:23.911Z,61.52
2018-04-23T20:51:51.947Z,62.60
2018-04-23T20:54:19.936Z,62.77
2018-04-23T20:56:47.905Z,62.66
2018-04-23T20:59:15.939Z,65.17
2018-04-23T21:01:43.983Z,64.45
2018-04-23T21:04:11.983Z,62.33
2018-04-23T21:06:39.975Z,62.97
2018-04-23T21:09:07.975Z,63.37
2018-04-23T21:11:35.965Z,63.06
2018-04-23T21:14:03.991Z,62.89
2018-04-23T21:16:32.004Z,63.34
2018-04-23T21:19:00.021Z,63.15
2018-04-23T21:21:28.070Z,63.84
2018-04-23T21:23:56.081Z,63.98
2018-04-23T21:26:24.086Z,64.57
2018-04-23T21:28:52.062Z,64.30
2018-04-23T21:31:20.200Z,64.68
2018-04-23T21:33:48.180Z,64.08
2018-04-23T21:36:16.224Z,64.14
2018-04-23T21:38:44.235Z,65.38
2018-04-23T21:41:12.238Z,64.00
2018-04-23T21:43:40.321Z,64.37
2018-04-23T21:46:08.323Z,64.92
2018-04-23T21:48:36.400Z,65.04
2018-04-23T21:51:04.385Z,64.94
2018-04-23T21:53:32.372Z,64.84
2018-04-23T21:56:00.391Z,64.72
2018-04-23T21:58:28.385Z,65.24
2018-04-23T22:00:56.406Z,64.83
2018-04-23T22:03:24.428Z,65.24
2018-04-23T22:05:52.425Z,65.30
2018-04-23T22:08:20.408Z,65.69
2018-04-23T22:10:48.411Z,66.07
2018-04-23T22:13:16.725Z,65.33
2018-04-23T22:15:44.786Z,65.59
2018-04-23T22:18:12.860Z,66.13
2018-04-23T22:20:40.807Z,66.33
2018-04-23T22:23:09.398Z,66.15
2018-04-23T22:25:37.400Z,66.81
2018-04-23T22:28:05.405Z,66.93
2018-04-23T22:30:33.411Z,66.91
2018-04-23T22:33:01.442Z,66.85
2018-04-23T22:35:29.437Z,67.19
2018-04-23T22:37:57.438Z,67.12
2018-04-23T22:40:25.448Z,67.43
2018-04-23T22:42:53.438Z,67.72
2018-04-23T22:45:21.432Z,67.61
2018-04-23T22:47:49.420Z,67.95
2018-04-23T22:50:17.402Z,68.39
2018-04-23T22:52:45.416Z,68.69
2018-04-23T22:55:13.409Z,69.10
2018-04-23T22:57:41.382Z,68.73
2018-04-23T23:00:09.377Z,68.75
2018-04-23T23:02:37.418Z,68.75
2018-04-23T23:05:05.387Z,69.07
2018-04-23T23:07:33.383Z,69.02
2018-04-23T23:10:01.396Z,69.10
2018-04-23T23:12:29.396Z,69.71
2018-04-23T23:14:57.396Z,69.16
2018-04-23T23:17:26.135Z,69.57
2018-04-23T23:19:54.132Z,70.19
2018-04-23T23:22:22.186Z,70.03
2018-04-23T23:24:50.388Z,70.67
2018-04-23T23:27:18.383Z,70.81
2018-04-23T23:29:46.383Z,70.42
2018-04-23T23:32:14.369Z,70.98
2018-04-23T23:34:42.375Z,70.90
2018-04-23T23:37:10.365Z,70.78
2018-04-23T23:39:38.345Z,71.30
2018-04-23T23:42:06.327Z,71.14
2018-04-23T23:44:34.344Z,71.70
2018-04-23T23:47:02.380Z,71.75
2018-04-23T23:49:30.376Z,72.41
2018-04-23T23:51:58.345Z,72.07
2018-04-23T23:54:26.352Z,71.86
2018-04-23T23:56:54.364Z,72.41
2018-04-23T23:59:22.359Z,72.83
